createdAt,value
2023-02-26T00:04:31.584Z,1.10
2023-02-26T00:09:35.912Z,1.30
2023-02-26T00:14:41.843Z,1.20
2023-02-26T00:19:45.614Z,1.50
2023-02-26T00:24:48.926Z,1.10
2023-02-26T00:29:54.385Z,1.50
2023-02-26T00:34:58.575Z,1.30
2023-02-26T00:40:14.873Z,1.13
2023-02-26T00:45:22.949Z,1.70
2023-02-26T00:50:28.477Z,1.40
2023-02-26T00:55:32.535Z,2.03
2023-02-26T01:00:38.477Z,1.50
2023-02-26T01:05:42.365Z,1.30
2023-02-26T01:10:46.024Z,1.20
2023-02-26T01:15:57.177Z,1.33
2023-02-26T01:21:05.965Z,1.20
2023-02-26T01:26:16.560Z,1.67
2023-02-26T01:31:30.794Z,1.43
2023-02-26T01:36:45.546Z,1.17
2023-02-26T01:41:51.935Z,1.93
2023-02-26T01:47:11.702Z,1.47
2023-02-26T01:53:06.174Z,1.50
2023-02-26T01:58:09.413Z,1.30
2023-02-26T02:03:14.352Z,1.43
2023-02-26T02:08:18.168Z,1.50
2023-02-26T02:13:31.021Z,1.50
2023-02-26T02:18:44.518Z,1.40
2023-02-26T02:23:56.462Z,1.40
2023-02-26T02:29:26.316Z,1.40
2023-02-26T02:34:38.545Z,1.60
2023-02-26T02:39:44.392Z,1.50
2023-02-26T02:44:53.238Z,1.40
2023-02-26T02:50:08.862Z,1.57
2023-02-26T02:55:17.434Z,1.87
2023-02-26T03:00:24.855Z,1.57
2023-02-26T03:05:29.813Z,1.80
2023-02-26T03:10:34.054Z,1.50
2023-02-26T03:15:57.776Z,1.60
2023-02-26T03:21:08.467Z,1.60
2023-02-26T03:26:16.651Z,1.43
2023-02-26T03:31:27.279Z,1.53
2023-02-26T03:36:37.473Z,2.37
2023-02-26T03:41:45.328Z,1.20
2023-02-26T03:46:53.911Z,1.57
2023-02-26T03:52:00.705Z,1.40
2023-02-26T03:57:04.166Z,1.30
2023-02-26T04:02:12.549Z,2.13
2023-02-26T04:07:19.561Z,1.57
2023-02-26T04:12:25.184Z,1.77
2023-02-26T04:17:30.350Z,1.67
2023-02-26T04:22:35.188Z,1.97
2023-02-26T04:27:38.447Z,1.50
2023-02-26T04:32:42.784Z,1.20
2023-02-26T04:37:49.543Z,1.60
2023-02-26T04:42:53.875Z,1.80
2023-02-26T04:47:57.212Z,1.93
2023-02-26T04:53:04.926Z,1.43
2023-02-26T04:58:09.156Z,1.77
2023-02-26T05:03:13.768Z,1.43
2023-02-26T05:08:18.547Z,1.90
2023-02-26T05:13:21.914Z,1.67
2023-02-26T05:18:26.373Z,1.50
2023-02-26T05:23:31.276Z,1.43
2023-02-26T05:28:36.687Z,4.53
2023-02-26T05:33:40.221Z,2.77
2023-02-26T05:38:44.973Z,2.00
2023-02-26T05:43:49.298Z,1.90
2023-02-26T05:48:52.724Z,1.67
2023-02-26T05:53:57.508Z,1.70
2023-02-26T05:59:00.905Z,1.70
2023-02-26T06:04:04.773Z,1.60
2023-02-26T06:09:09.526Z,1.60
2023-02-26T06:14:12.926Z,1.80
2023-02-26T06:19:17.417Z,1.73
2023-02-26T06:24:22.393Z,2.00
2023-02-26T06:29:25.640Z,2.20
2023-02-26T06:34:34.908Z,1.70
2023-02-26T06:39:40.579Z,1.90
2023-02-26T06:44:43.871Z,1.83
2023-02-26T06:49:49.101Z,1.80
2023-02-26T06:54:53.811Z,2.10
2023-02-26T06:59:57.167Z,1.57
2023-02-26T07:05:07.671Z,2.00
2023-02-26T07:10:13.739Z,1.70
2023-02-26T07:15:19.532Z,1.70
2023-02-26T07:20:23.508Z,1.83
2023-02-26T07:25:28.541Z,2.20
2023-02-26T07:30:32.249Z,2.10
2023-02-26T07:35:35.712Z,1.33
2023-02-26T07:40:40.499Z,2.10
2023-02-26T07:45:43.829Z,1.67
2023-02-26T07:50:47.202Z,2.37
2023-02-26T07:55:51.903Z,2.83
2023-02-26T08:00:55.243Z,2.60
2023-02-26T08:06:00.322Z,2.17
2023-02-26T08:11:05.487Z,2.33
2023-02-26T08:16:08.840Z,2.67
2023-02-26T08:21:12.967Z,2.70
2023-02-26T08:26:17.811Z,2.83
2023-02-26T08:31:21.623Z,1.80
2023-02-26T08:36:25.787Z,1.70
2023-02-26T08:41:32.458Z,1.40
2023-02-26T08:46:35.945Z,1.90
2023-02-26T08:51:39.381Z,1.77
2023-02-26T08:56:44.099Z,1.50
2023-02-26T09:01:48.631Z,1.40
2023-02-26T09:06:54.018Z,1.50
2023-02-26T09:11:59.169Z,1.10
2023-02-26T09:17:02.588Z,1.50
2023-02-26T09:22:09.126Z,1.40
2023-02-26T09:27:14.023Z,1.70
2023-02-26T09:32:17.755Z,1.90
2023-02-26T09:37:21.174Z,1.67
2023-02-26T09:42:37.284Z,2.00
2023-02-26T09:47:46.646Z,1.37
2023-02-26T09:52:55.348Z,1.33
2023-02-26T09:58:03.614Z,2.07
2023-02-26T10:03:25.351Z,2.20
2023-02-26T10:08:39.959Z,3.10
2023-02-26T10:13:57.608Z,3.87
2023-02-26T10:19:12.613Z,2.17
2023-02-26T10:24:22.010Z,1.63
2023-02-26T10:29:34.415Z,1.10
2023-02-26T10:34:43.292Z,1.20
2023-02-26T10:39:53.238Z,1.73
2023-02-26T10:45:12.394Z,1.27
2023-02-26T10:50:19.496Z,1.20
2023-02-26T10:55:37.974Z,1.40
2023-02-26T11:00:46.288Z,1.73
2023-02-26T11:05:50.412Z,1.30
2023-02-26T11:10:56.678Z,1.10
2023-02-26T11:16:04.430Z,1.60
2023-02-26T11:21:08.650Z,1.10
2023-02-26T11:26:18.909Z,1.40
2023-02-26T11:31:28.376Z,1.27
2023-02-26T11:36:37.152Z,1.50
2023-02-26T11:41:40.854Z,1.70
2023-02-26T11:46:47.298Z,1.13
2023-02-26T11:52:05.948Z,1.27
2023-02-26T11:57:17.665Z,1.00
2023-02-26T12:02:24.829Z,1.23
2023-02-26T12:07:30.924Z,1.30
2023-02-26T12:12:46.760Z,1.10
2023-02-26T12:18:15.789Z,1.33
2023-02-26T12:23:42.733Z,1.20
2023-02-26T12:28:59.813Z,1.33
2023-02-26T12:34:16.911Z,1.00
2023-02-26T12:39:34.019Z,1.60
2023-02-26T12:45:07.264Z,1.30
2023-02-26T12:50:24.857Z,1.00
2023-02-26T12:55:38.249Z,1.33
2023-02-26T13:01:00.728Z,1.70
2023-02-26T13:06:35.552Z,1.47
2023-02-26T13:11:54.446Z,1.70
2023-02-26T13:17:07.518Z,1.70
2023-02-26T13:22:19.977Z,1.57
2023-02-26T13:27:27.015Z,1.30
2023-02-26T13:32:30.902Z,1.40
2023-02-26T13:37:41.008Z,1.40
2023-02-26T13:42:52.806Z,1.30
2023-02-26T13:48:18.591Z,1.27
2023-02-26T13:53:53.447Z,1.23
2023-02-26T13:59:04.303Z,1.00
2023-02-26T14:04:26.072Z,0.90
2023-02-26T14:10:02.334Z,1.23
2023-02-26T14:15:33.438Z,1.33
2023-02-26T14:20:37.260Z,0.90
2023-02-26T14:25:49.866Z,0.87
2023-02-26T14:31:00.489Z,1.00
2023-02-26T14:36:06.479Z,0.80
2023-02-26T14:41:23.247Z,0.70
2023-02-26T14:46:26.824Z,1.07
2023-02-26T14:51:43.319Z,1.10
2023-02-26T14:57:02.490Z,1.10
2023-02-26T15:02:25.226Z,1.20
2023-02-26T15:07:50.049Z,0.90
2023-02-26T15:13:29.018Z,0.90
2023-02-26T15:18:50.508Z,0.90
2023-02-26T15:23:56.047Z,1.13
2023-02-26T15:29:03.655Z,0.70
2023-02-26T15:34:15.403Z,0.73
2023-02-26T15:39:20.487Z,0.67
2023-02-26T15:44:33.842Z,0.80
2023-02-26T15:49:41.055Z,0.90
2023-02-26T15:54:49.482Z,1.20
2023-02-26T16:00:10.091Z,0.97
2023-02-26T16:05:15.428Z,1.03
2023-02-26T16:10:29.843Z,0.90
2023-02-26T16:15:39.124Z,0.80
2023-02-26T16:20:45.403Z,0.90
2023-02-26T16:25:53.657Z,0.93
2023-02-26T16:31:02.421Z,0.90
2023-02-26T16:36:12.451Z,1.10
2023-02-26T16:41:16.007Z,1.07
2023-02-26T16:46:25.080Z,1.20
2023-02-26T16:51:33.519Z,1.20
2023-02-26T16:56:41.102Z,1.27
2023-02-26T17:01:52.503Z,1.93
2023-02-26T17:06:56.589Z,3.33
2023-02-26T17:12:15.436Z,1.23
2023-02-26T17:17:20.189Z,1.10
2023-02-26T17:22:27.951Z,1.00
2023-02-26T17:27:34.049Z,0.90
2023-02-26T17:32:39.002Z,1.00
2023-02-26T17:37:42.384Z,0.80
2023-02-26T17:42:49.553Z,0.77
2023-02-26T17:47:54.633Z,1.17
2023-02-26T17:52:59.065Z,0.90
2023-02-26T17:58:04.439Z,0.80
2023-02-26T18:03:12.332Z,0.70
2023-02-26T18:08:23.056Z,1.40
2023-02-26T18:13:27.281Z,0.80
2023-02-26T18:18:33.484Z,1.00
2023-02-26T18:23:38.224Z,1.70
2023-02-26T18:28:41.654Z,0.83
2023-02-26T18:33:46.313Z,0.90
2023-02-26T18:38:52.360Z,1.10
2023-02-26T18:43:55.803Z,1.10
2023-02-26T18:49:07.028Z,0.90
2023-02-26T18:54:20.446Z,0.90
2023-02-26T18:59:24.536Z,1.17
2023-02-26T19:04:29.458Z,1.07
2023-02-26T19:09:35.149Z,0.80
2023-02-26T19:14:38.502Z,1.00
2023-02-26T19:19:49.074Z,0.87
2023-02-26T19:24:53.326Z,1.47
2023-02-26T19:29:56.872Z,1.00
2023-02-26T19:35:01.650Z,1.20
2023-02-26T19:40:10.103Z,0.97
2023-02-26T19:45:13.596Z,0.80
2023-02-26T19:50:22.588Z,1.20
2023-02-26T19:55:25.979Z,1.20
2023-02-26T20:00:29.533Z,0.70
2023-02-26T20:05:34.267Z,0.80
2023-02-26T20:10:37.586Z,1.30
2023-02-26T20:15:41.527Z,0.93
2023-02-26T20:20:47.253Z,0.70
2023-02-26T20:25:50.807Z,0.70
2023-02-26T20:30:56.280Z,0.80
2023-02-26T20:36:01.330Z,0.80
2023-02-26T20:41:05.021Z,1.10
2023-02-26T20:46:08.345Z,0.70
2023-02-26T20:51:13.303Z,0.77
2023-02-26T20:56:19.827Z,1.03
2023-02-26T21:01:24.537Z,0.80
2023-02-26T21:06:29.689Z,0.80
2023-02-26T21:11:36.613Z,0.73
2023-02-26T21:16:42.333Z,1.13
2023-02-26T21:21:47.288Z,1.03
2023-02-26T21:26:51.789Z,1.10
2023-02-26T21:31:57.842Z,0.80
2023-02-26T21:37:02.916Z,0.90
2023-02-26T21:42:07.415Z,0.80
2023-02-26T21:47:11.256Z,0.80
2023-02-26T21:52:16.130Z,1.20
2023-02-26T21:57:19.408Z,0.90
2023-02-26T22:02:22.790Z,1.00
2023-02-26T22:07:27.493Z,1.10
2023-02-26T22:12:30.781Z,1.07
2023-02-26T22:17:34.152Z,1.30
2023-02-26T22:22:39.915Z,1.20
2023-02-26T22:27:43.273Z,1.00
2023-02-26T22:32:46.897Z,1.10
2023-02-26T22:37:52.675Z,1.23
2023-02-26T22:42:56.454Z,1.27
2023-02-26T22:47:59.906Z,1.47
2023-02-26T22:53:04.762Z,1.20
2023-02-26T22:58:07.950Z,1.10
2023-02-26T23:03:12.336Z,1.00
2023-02-26T23:08:17.101Z,1.17
2023-02-26T23:13:21.980Z,1.00
2023-02-26T23:18:26.523Z,1.30
2023-02-26T23:23:32.311Z,1.17
2023-02-26T23:28:36.830Z,1.07
2023-02-26T23:33:40.168Z,1.30
2023-02-26T23:38:44.832Z,1.13
2023-02-26T23:43:49.207Z,1.13
2023-02-26T23:48:52.565Z,1.20
2023-02-26T23:53:57.387Z,1.20
2023-02-26T23:59:00.661Z,1.20
